Time;durP1;ratioP1;P1;durP2;ratioP2;P2;SDS_P1;SDS_P2;PMS_P1;PMS_P2;Temp;Humidity;BMP_temperature;BMP_pressure;BME280_temperature;BME280_humidity;BME280_pressure;Samples;Min_cycle;Max_cycle;Signal;HPM_P1;HPM_P2
2023/08/05 00:01:07;;;;;;;2.60;1.92;;;;;;;;;;4977694;28;20508;-56
2023/08/05 00:03:32;;;;;;;3.22;1.92;;;;;;;;;;4960372;28;20037;-57
2023/08/05 00:05:58;;;;;;;1.75;1.65;;;;;;;;;;4977578;28;20066;-57
2023/08/05 00:08:24;;;;;;;2.78;1.80;;;;;;;;;;4960243;28;20026;-56
2023/08/05 00:10:49;;;;;;;2.10;1.90;;;;;;;;;;4977579;28;20049;-57
2023/08/05 00:13:15;;;;;;;4.60;1.85;;;;;;;;;;4977772;28;20034;-56
2023/08/05 00:15:40;;;;;;;3.20;2.00;;;;;;;;;;4977874;28;20055;-56
2023/08/05 00:18:05;;;;;;;3.17;2.17;;;;;;;;;;4977418;28;20018;-57
2023/08/05 00:20:31;;;;;;;2.60;1.67;;;;;;;;;;4977618;28;20034;-57
2023/08/05 00:22:56;;;;;;;3.58;2.10;;;;;;;;;;4977117;28;20483;-57
2023/08/05 00:25:22;;;;;;;4.28;2.33;;;;;;;;;;4977231;28;20039;-57
2023/08/05 00:27:47;;;;;;;3.58;2.22;;;;;;;;;;4977403;28;20026;-57
2023/08/05 00:30:12;;;;;;;3.13;2.10;;;;;;;;;;4977174;28;20058;-57
2023/08/05 00:32:38;;;;;;;2.53;2.22;;;;;;;;;;4977415;28;20089;-57
2023/08/05 00:35:04;;;;;;;2.55;1.92;;;;;;;;;;4959794;28;20084;-57
2023/08/05 00:37:30;;;;;;;3.22;1.98;;;;;;;;;;4977309;28;20023;-57
2023/08/05 00:39:55;;;;;;;2.08;1.85;;;;;;;;;;4977253;28;20039;-57
2023/08/05 00:42:20;;;;;;;2.58;2.38;;;;;;;;;;4977234;28;20029;-57
2023/08/05 00:44:46;;;;;;;2.13;1.85;;;;;;;;;;4976942;28;20034;-57
2023/08/05 00:47:15;;;;;;;1.73;1.45;;;;;;;;;;4976775;28;20022;-57
2023/08/05 00:49:41;;;;;;;3.47;2.30;;;;;;;;;;4977117;28;20029;-56
2023/08/05 00:52:06;;;;;;;2.28;2.08;;;;;;;;;;4977136;28;20144;-56
2023/08/05 00:54:32;;;;;;;3.13;1.90;;;;;;;;;;4976779;28;20022;-57
2023/08/05 00:56:57;;;;;;;2.03;1.90;;;;;;;;;;4959395;28;20470;-57
2023/08/05 00:59:22;;;;;;;4.00;2.13;;;;;;;;;;4976684;28;20393;-57
2023/08/05 01:01:48;;;;;;;2.20;2.00;;;;;;;;;;4976617;28;20034;-57
2023/08/05 01:04:13;;;;;;;2.60;2.10;;;;;;;;;;4976575;28;20092;-57
2023/08/05 01:06:39;;;;;;;2.17;1.98;;;;;;;;;;4959103;28;20039;-57
2023/08/05 01:09:04;;;;;;;2.03;1.75;;;;;;;;;;4976530;28;20057;-57
2023/08/05 01:11:30;;;;;;;1.83;1.73;;;;;;;;;;4959004;28;20078;-57
2023/08/05 01:13:55;;;;;;;2.50;2.30;;;;;;;;;;4976682;28;20027;-57
2023/08/05 01:16:21;;;;;;;2.70;2.17;;;;;;;;;;4959144;28;20473;-57
2023/08/05 01:18:46;;;;;;;2.58;2.30;;;;;;;;;;4976610;28;20027;-57
2023/08/05 01:21:22;;;;;;;3.25;2.58;;;;;;;;;;4958940;28;20031;-57
2023/08/05 01:23:50;;;;;;;3.05;2.40;;;;;;;;;;4958912;28;20505;-57
2023/08/05 01:26:16;;;;;;;3.53;2.20;;;;;;;;;;4958727;28;20484;-57
2023/08/05 01:28:42;;;;;;;4.18;2.30;;;;;;;;;;4976380;28;20022;-57
2023/08/05 01:31:08;;;;;;;2.22;2.03;;;;;;;;;;4959300;28;20038;-57
2023/08/05 01:33:33;;;;;;;2.30;2.10;;;;;;;;;;4976011;28;20035;-57
2023/08/05 01:35:58;;;;;;;2.53;2.33;;;;;;;;;;4976249;28;20050;-57
2023/08/05 01:38:24;;;;;;;4.28;2.25;;;;;;;;;;4976433;28;20070;-57
2023/08/05 01:40:49;;;;;;;2.22;2.05;;;;;;;;;;4958550;28;20097;-57
2023/08/05 01:43:14;;;;;;;3.53;2.03;;;;;;;;;;4958474;28;20070;-57
2023/08/05 01:45:40;;;;;;;2.88;2.00;;;;;;;;;;4958495;28;20031;-57
2023/08/05 01:48:05;;;;;;;2.60;2.35;;;;;;;;;;4975992;28;20073;-57
2023/08/05 01:50:30;;;;;;;2.30;2.13;;;;;;;;;;4975948;28;20416;-57
2023/08/05 01:52:56;;;;;;;2.40;2.20;;;;;;;;;;4958370;28;20030;-57
2023/08/05 01:55:21;;;;;;;2.25;2.03;;;;;;;;;;4958045;28;20020;-57
2023/08/05 01:57:47;;;;;;;2.33;2.05;;;;;;;;;;4974988;28;20030;-56
2023/08/05 02:00:12;;;;;;;2.75;2.20;;;;;;;;;;4958212;28;20062;-57
2023/08/05 02:02:41;;;;;;;2.67;2.30;;;;;;;;;;4975802;28;20035;-57
2023/08/05 02:05:06;;;;;;;2.42;2.22;;;;;;;;;;4975697;28;20039;-57
2023/08/05 02:07:31;;;;;;;2.67;2.28;;;;;;;;;;4975885;28;20089;-57
2023/08/05 02:09:57;;;;;;;2.35;2.10;;;;;;;;;;5001330;23;20057;-56
2023/08/05 02:12:22;;;;;;;1.88;1.77;;;;;;;;;;5028359;23;20049;-57
2023/08/05 02:14:47;;;;;;;2.20;1.95;;;;;;;;;;5022677;23;20061;-57
2023/08/05 02:17:13;;;;;;;2.58;1.83;;;;;;;;;;5033908;28;20021;-57
2023/08/05 02:19:38;;;;;;;2.30;2.10;;;;;;;;;;5034255;28;20029;-57
2023/08/05 02:22:04;;;;;;;2.47;2.28;;;;;;;;;;5016285;28;20056;-58
2023/08/05 02:24:29;;;;;;;3.10;2.47;;;;;;;;;;5034495;28;20040;-57
2023/08/05 02:26:54;;;;;;;3.03;2.67;;;;;;;;;;5034098;28;20040;-57
2023/08/05 02:29:20;;;;;;;3.47;2.83;;;;;;;;;;5032613;28;20064;-57
2023/08/05 02:31:45;;;;;;;3.22;2.85;;;;;;;;;;5034131;28;20037;-56
2023/08/05 02:34:10;;;;;;;2.72;2.50;;;;;;;;;;5016081;28;20510;-57
2023/08/05 02:36:36;;;;;;;4.03;2.42;;;;;;;;;;5033735;28;20112;-57
2023/08/05 02:39:01;;;;;;;2.90;2.70;;;;;;;;;;5034041;28;20052;-57
2023/08/05 02:41:26;;;;;;;3.15;2.85;;;;;;;;;;5033717;28;20033;-56
2023/08/05 02:43:53;;;;;;;3.67;2.95;;;;;;;;;;5016023;28;20029;-56
2023/08/05 02:46:18;;;;;;;4.65;2.60;;;;;;;;;;5015896;28;20034;-57
2023/08/05 02:48:43;;;;;;;4.07;3.20;;;;;;;;;;5033627;28;20043;-56
2023/08/05 02:51:09;;;;;;;4.18;3.17;;;;;;;;;;5015847;28;20026;-56
2023/08/05 02:53:34;;;;;;;4.72;2.80;;;;;;;;;;5015959;28;20060;-57
2023/08/05 02:55:59;;;;;;;3.25;2.90;;;;;;;;;;5016479;28;20035;-57
2023/08/05 02:58:25;;;;;;;3.08;2.75;;;;;;;;;;5015869;28;20026;-57
2023/08/05 03:00:50;;;;;;;2.47;2.28;;;;;;;;;;5015871;28;20034;-57
2023/08/05 03:03:16;;;;;;;3.75;2.92;;;;;;;;;;5033532;28;20028;-57
2023/08/05 03:05:42;;;;;;;3.20;2.90;;;;;;;;;;5015845;28;20028;-57
2023/08/05 03:08:07;;;;;;;2.90;2.70;;;;;;;;;;5032107;28;20037;-57
2023/08/05 03:10:33;;;;;;;3.22;2.60;;;;;;;;;;5015805;28;20018;-57
2023/08/05 03:12:59;;;;;;;3.28;2.50;;;;;;;;;;5033434;28;20030;-57
2023/08/05 03:15:28;;;;;;;3.88;2.65;;;;;;;;;;5012376;28;20467;-57
2023/08/05 03:17:54;;;;;;;3.88;3.05;;;;;;;;;;5012441;28;20563;-57
2023/08/05 03:20:30;;;;;;;3.20;2.90;;;;;;;;;;5013607;28;20113;-57
2023/08/05 03:23:04;;;;;;;4.85;2.95;;;;;;;;;;5012395;28;20124;-57
2023/08/05 03:25:32;;;;;;;3.85;2.97;;;;;;;;;;5028805;28;20053;-57
2023/08/05 03:28:01;;;;;;;3.47;3.17;;;;;;;;;;5013535;28;20125;-57
2023/08/05 03:30:29;;;;;;;5.72;3.10;;;;;;;;;;5032282;28;20050;-57
2023/08/05 03:32:56;;;;;;;3.97;3.00;;;;;;;;;;5032866;28;20030;-57
2023/08/05 03:35:24;;;;;;;3.92;3.00;;;;;;;;;;5032494;28;20029;-57
2023/08/05 03:37:50;;;;;;;2.90;2.70;;;;;;;;;;5032773;28;20037;-57
2023/08/05 03:40:15;;;;;;;3.45;2.78;;;;;;;;;;5032407;28;20045;-57
2023/08/05 03:42:41;;;;;;;2.92;2.50;;;;;;;;;;5017174;28;20022;-56
2023/08/05 03:45:06;;;;;;;3.47;3.00;;;;;;;;;;5017357;28;20040;-57
2023/08/05 03:47:32;;;;;;;2.53;2.33;;;;;;;;;;5032206;28;20468;-56
2023/08/05 03:49:57;;;;;;;6.25;3.22;;;;;;;;;;5017589;28;20460;-57
2023/08/05 03:52:24;;;;;;;3.83;3.08;;;;;;;;;;5017253;28;20030;-57
2023/08/05 03:54:51;;;;;;;3.47;2.38;;;;;;;;;;5017513;28;20033;-57
2023/08/05 03:57:16;;;;;;;3.33;3.10;;;;;;;;;;5015877;28;20034;-57
2023/08/05 03:59:42;;;;;;;4.40;2.80;;;;;;;;;;5032108;28;20052;-57
2023/08/05 04:02:08;;;;;;;3.60;3.03;;;;;;;;;;5032034;28;20459;-57
2023/08/05 04:04:33;;;;;;;5.38;3.50;;;;;;;;;;5015607;28;20462;-57
2023/08/05 04:06:58;;;;;;;4.80;3.05;;;;;;;;;;5017174;28;20060;-57
2023/08/05 04:09:25;;;;;;;4.97;4.47;;;;;;;;;;5015495;28;20465;-57
2023/08/05 04:11:50;;;;;;;4.90;3.65;;;;;;;;;;5016875;28;20033;-57
2023/08/05 04:14:18;;;;;;;3.47;3.10;;;;;;;;;;5024633;28;20044;-57
2023/08/05 04:16:43;;;;;;;2.63;2.42;;;;;;;;;;5018572;28;20036;-57
2023/08/05 04:19:08;;;;;;;2.67;2.47;;;;;;;;;;5018497;28;20025;-57
2023/08/05 04:21:40;;;;;;;2.30;1.70;;;;;;;;;;5018604;28;20087;-57
2023/08/05 04:24:09;;;;;;;5.88;2.65;;;;;;;;;;5034945;28;20064;-57
2023/08/05 04:26:35;;;;;;;6.25;3.03;;;;;;;;;;5036304;28;20029;-62
2023/08/05 04:29:02;;;;;;;3.35;3.00;;;;;;;;;;5036365;28;20025;-62
2023/08/05 04:31:28;;;;;;;5.40;2.90;;;;;;;;;;5036295;28;20423;-61
2023/08/05 04:33:53;;;;;;;4.43;3.53;;;;;;;;;;5036273;28;20598;-62
2023/08/05 04:36:19;;;;;;;6.20;3.17;;;;;;;;;;5035931;28;20022;-62
2023/08/05 04:38:44;;;;;;;5.07;3.28;;;;;;;;;;5036152;28;20018;-62
2023/08/05 04:41:09;;;;;;;5.40;3.90;;;;;;;;;;5035463;28;20558;-62
2023/08/05 04:43:34;;;;;;;4.85;3.70;;;;;;;;;;5036349;28;20021;-62
2023/08/05 04:46:00;;;;;;;4.88;3.50;;;;;;;;;;5036310;28;20060;-62
2023/08/05 04:48:25;;;;;;;7.95;3.55;;;;;;;;;;5018583;28;20135;-62
2023/08/05 04:50:50;;;;;;;6.28;3.58;;;;;;;;;;5035653;28;20393;-62
2023/08/05 04:53:16;;;;;;;3.20;2.88;;;;;;;;;;5035631;28;20030;-62
2023/08/05 04:55:41;;;;;;;3.20;2.80;;;;;;;;;;5035518;28;20032;-62
2023/08/05 04:58:08;;;;;;;6.25;3.55;;;;;;;;;;5036078;28;20041;-61
2023/08/05 05:00:33;;;;;;;3.40;3.10;;;;;;;;;;5036096;28;20029;-61
2023/08/05 05:02:59;;;;;;;3.60;2.70;;;;;;;;;;5018097;28;20379;-62
2023/08/05 05:05:25;;;;;;;2.97;2.30;;;;;;;;;;5035393;28;20025;-62
2023/08/05 05:07:50;;;;;;;2.95;2.17;;;;;;;;;;5035549;28;20036;-60
2023/08/05 05:10:15;;;;;;;2.58;1.80;;;;;;;;;;5035270;28;20033;-61
2023/08/05 05:12:41;;;;;;;2.30;1.70;;;;;;;;;;5035285;28;20100;-61
2023/08/05 05:15:06;;;;;;;2.25;1.70;;;;;;;;;;5035224;28;20128;-61
2023/08/05 05:17:35;;;;;;;3.40;1.60;;;;;;;;;;5035160;28;20108;-61
2023/08/05 05:20:04;;;;;;;1.50;1.40;;;;;;;;;;5035121;28;20029;-61
2023/08/05 05:22:30;;;;;;;1.75;1.50;;;;;;;;;;5017272;28;20398;-61
2023/08/05 05:24:55;;;;;;;1.60;1.33;;;;;;;;;;5035027;28;20044;-61
2023/08/05 05:27:20;;;;;;;1.77;1.30;;;;;;;;;;5035173;28;20030;-61
2023/08/05 05:29:46;;;;;;;2.60;1.25;;;;;;;;;;5034920;28;20079;-61
2023/08/05 05:32:11;;;;;;;3.33;1.30;;;;;;;;;;5034886;28;20503;-61
2023/08/05 05:34:36;;;;;;;1.70;1.42;;;;;;;;;;5034831;28;20029;-61
2023/08/05 05:37:02;;;;;;;2.17;1.30;;;;;;;;;;5034754;28;20072;-61
2023/08/05 05:39:28;;;;;;;1.27;1.17;;;;;;;;;;5035020;28;20033;-61
2023/08/05 05:41:54;;;;;;;2.05;1.30;;;;;;;;;;5034663;28;20028;-61
2023/08/05 05:44:20;;;;;;;2.13;1.52;;;;;;;;;;5034888;28;20041;-61
2023/08/05 05:46:45;;;;;;;1.45;1.10;;;;;;;;;;5016717;28;20037;-61
2023/08/05 05:49:11;;;;;;;2.10;1.60;;;;;;;;;;5016859;28;20037;-61
2023/08/05 05:51:38;;;;;;;1.52;1.20;;;;;;;;;;5033165;28;20056;-61
2023/08/05 05:54:03;;;;;;;1.85;1.30;;;;;;;;;;5033470;28;20044;-61
2023/08/05 05:56:28;;;;;;;3.25;1.63;;;;;;;;;;5033375;28;20029;-61
2023/08/05 05:58:54;;;;;;;1.85;1.30;;;;;;;;;;5033345;28;20387;-61
2023/08/05 06:01:20;;;;;;;2.78;1.40;;;;;;;;;;5033312;28;20041;-61
2023/08/05 06:03:46;;;;;;;3.15;1.63;;;;;;;;;;5033223;28;20357;-61
2023/08/05 06:06:11;;;;;;;1.55;1.40;;;;;;;;;;5033388;28;20143;-61
2023/08/05 06:08:37;;;;;;;3.40;1.70;;;;;;;;;;5033181;28;20025;-61
2023/08/05 06:11:07;;;;;;;1.65;1.55;;;;;;;;;;5015499;28;20021;-61
2023/08/05 06:13:32;;;;;;;1.65;1.55;;;;;;;;;;5033014;28;20029;-61
2023/08/05 06:15:57;;;;;;;4.10;1.50;;;;;;;;;;5033114;28;20492;-61
2023/08/05 06:18:22;;;;;;;1.48;1.38;;;;;;;;;;5033113;28;20036;-61
2023/08/05 06:20:48;;;;;;;2.05;1.60;;;;;;;;;;5015275;28;20036;-61
2023/08/05 06:23:14;;;;;;;1.70;1.60;;;;;;;;;;5033017;28;20045;-61
2023/08/05 06:25:39;;;;;;;2.15;1.60;;;;;;;;;;5033063;28;20037;-61
2023/08/05 06:28:04;;;;;;;1.60;1.50;;;;;;;;;;5015182;28;20031;-61
2023/08/05 06:30:33;;;;;;;3.92;2.10;;;;;;;;;;5015227;28;20036;-61
2023/08/05 06:32:59;;;;;;;2.83;1.80;;;;;;;;;;5015282;28;20109;-61
2023/08/05 06:35:24;;;;;;;1.90;1.80;;;;;;;;;;5032835;28;20113;-61
2023/08/05 06:37:50;;;;;;;3.95;2.13;;;;;;;;;;5015260;28;20029;-61
2023/08/05 06:40:15;;;;;;;1.83;1.73;;;;;;;;;;5032804;28;20040;-64
2023/08/05 06:42:41;;;;;;;1.60;1.50;;;;;;;;;;5032958;28;20367;-64
2023/08/05 06:45:06;;;;;;;1.63;1.52;;;;;;;;;;5032828;28;20033;-64
2023/08/05 06:47:32;;;;;;;3.28;1.70;;;;;;;;;;5032641;28;20036;-60
2023/08/05 06:49:57;;;;;;;2.55;1.70;;;;;;;;;;5032637;28;20489;-57
2023/08/05 06:52:23;;;;;;;1.63;1.52;;;;;;;;;;5032640;28;20041;-57
2023/08/05 06:54:48;;;;;;;2.63;2.00;;;;;;;;;;5033236;28;20033;-61
2023/08/05 06:57:14;;;;;;;2.30;1.92;;;;;;;;;;5032958;28;20033;-61
2023/08/05 06:59:39;;;;;;;2.05;1.80;;;;;;;;;;5033091;28;20075;-62
2023/08/05 07:02:05;;;;;;;2.08;1.88;;;;;;;;;;5032698;28;20018;-62
2023/08/05 07:04:38;;;;;;;2.88;2.03;;;;;;;;;;5035140;28;20037;-62
2023/08/05 07:07:03;;;;;;;3.08;1.58;;;;;;;;;;5038046;28;20029;-62
2023/08/05 07:09:29;;;;;;;1.80;1.70;;;;;;;;;;5037811;28;20075;-62
2023/08/05 07:11:54;;;;;;;1.77;1.67;;;;;;;;;;5038083;28;20061;-62
2023/08/05 07:14:20;;;;;;;2.03;1.80;;;;;;;;;;5036626;28;20037;-62
2023/08/05 07:16:45;;;;;;;2.75;1.90;;;;;;;;;;5036306;28;20061;-62
2023/08/05 07:19:11;;;;;;;2.08;1.95;;;;;;;;;;5036251;28;20021;-62
2023/08/05 07:21:36;;;;;;;3.47;2.38;;;;;;;;;;5036273;28;20480;-62
2023/08/05 07:24:01;;;;;;;3.10;2.90;;;;;;;;;;5018564;28;20024;-62
2023/08/05 07:26:26;;;;;;;2.83;2.58;;;;;;;;;;5034967;28;20407;-62
2023/08/05 07:28:52;;;;;;;3.13;2.22;;;;;;;;;;5018520;28;20472;-62
2023/08/05 07:31:17;;;;;;;2.50;2.30;;;;;;;;;;5036182;28;20391;-62
2023/08/05 07:33:46;;;;;;;2.88;2.35;;;;;;;;;;5036036;28;20375;-62
2023/08/05 07:36:12;;;;;;;2.60;2.42;;;;;;;;;;5036027;28;20018;-62
2023/08/05 07:38:39;;;;;;;3.47;3.15;;;;;;;;;;5034718;28;20033;-62
2023/08/05 07:41:05;;;;;;;2.92;2.60;;;;;;;;;;5036036;28;20033;-62
2023/08/05 07:43:35;;;;;;;3.45;2.10;;;;;;;;;;5036162;28;20025;-57
2023/08/05 07:46:01;;;;;;;2.83;1.83;;;;;;;;;;5037166;28;20057;-57
2023/08/05 07:48:35;;;;;;;2.13;2.00;;;;;;;;;;5019135;28;20758;-57
2023/08/05 07:51:00;;;;;;;4.75;2.33;;;;;;;;;;5036883;28;20032;-58
2023/08/05 07:53:28;;;;;;;3.20;2.08;;;;;;;;;;5036714;28;20468;-57
2023/08/05 07:55:54;;;;;;;1.98;1.88;;;;;;;;;;5036641;28;20034;-61
2023/08/05 07:58:20;;;;;;;3.13;2.00;;;;;;;;;;5018887;28;20048;-61
2023/08/05 08:00:46;;;;;;;3.13;1.80;;;;;;;;;;5036587;28;20029;-61
2023/08/05 08:03:11;;;;;;;2.83;1.90;;;;;;;;;;5019618;28;20033;-61
2023/08/05 08:05:37;;;;;;;3.13;2.13;;;;;;;;;;5035995;28;20041;-60
2023/08/05 08:08:02;;;;;;;3.55;1.90;;;;;;;;;;5035787;28;20033;-61
2023/08/05 08:10:28;;;;;;;2.15;1.95;;;;;;;;;;5036049;28;20025;-58
2023/08/05 08:12:53;;;;;;;2.83;2.63;;;;;;;;;;5025663;28;20537;-61
2023/08/05 08:15:18;;;;;;;3.38;1.98;;;;;;;;;;4997978;28;20049;-57
2023/08/05 08:17:44;;;;;;;4.60;2.30;;;;;;;;;;5015213;28;20072;-56
2023/08/05 08:20:09;;;;;;;2.30;2.13;;;;;;;;;;5016467;28;20038;-56
2023/08/05 08:22:35;;;;;;;2.70;2.10;;;;;;;;;;5016498;28;20056;-56
2023/08/05 08:25:00;;;;;;;2.95;2.38;;;;;;;;;;5016896;28;20038;-56
2023/08/05 08:27:26;;;;;;;4.00;2.28;;;;;;;;;;5016519;28;20034;-56
2023/08/05 08:29:51;;;;;;;3.45;2.47;;;;;;;;;;5016894;28;20020;-56
2023/08/05 08:32:16;;;;;;;2.60;2.40;;;;;;;;;;5016624;28;20475;-56
2023/08/05 08:34:42;;;;;;;4.90;2.22;;;;;;;;;;5015201;28;20472;-56
2023/08/05 08:37:07;;;;;;;2.65;2.30;;;;;;;;;;5015057;28;20034;-56
2023/08/05 08:39:32;;;;;;;3.03;2.72;;;;;;;;;;5015862;28;20037;-56
2023/08/05 08:41:58;;;;;;;3.35;2.40;;;;;;;;;;5016658;28;20044;-56
2023/08/05 08:44:25;;;;;;;3.33;2.33;;;;;;;;;;5016046;28;20033;-56
2023/08/05 08:46:51;;;;;;;3.20;2.70;;;;;;;;;;5016200;28;20452;-56
2023/08/05 08:49:17;;;;;;;3.55;2.38;;;;;;;;;;5015952;28;20030;-56
2023/08/05 08:51:45;;;;;;;3.35;2.90;;;;;;;;;;5015903;28;20018;-56
2023/08/05 08:54:13;;;;;;;3.33;2.50;;;;;;;;;;5014915;28;20105;-56
2023/08/05 08:56:38;;;;;;;4.35;2.67;;;;;;;;;;5014119;28;20371;-56
2023/08/05 08:59:04;;;;;;;3.45;2.60;;;;;;;;;;5013962;28;20100;-56
2023/08/05 09:01:30;;;;;;;3.60;2.80;;;;;;;;;;5012872;28;20420;-56
2023/08/05 09:03:56;;;;;;;2.90;2.70;;;;;;;;;;5014174;28;20032;-56
2023/08/05 09:06:23;;;;;;;3.08;2.65;;;;;;;;;;5013734;28;20041;-56
2023/08/05 09:08:50;;;;;;;3.70;2.92;;;;;;;;;;5014728;28;20153;-56
2023/08/05 09:11:16;;;;;;;3.65;2.97;;;;;;;;;;5015803;28;20053;-56
2023/08/05 09:13:41;;;;;;;3.67;2.80;;;;;;;;;;5015328;28;20034;-56
2023/08/05 09:16:06;;;;;;;4.55;2.90;;;;;;;;;;5015458;28;20515;-56
2023/08/05 09:18:32;;;;;;;3.25;2.95;;;;;;;;;;5014129;28;20365;-56
2023/08/05 09:20:59;;;;;;;4.93;3.80;;;;;;;;;;5015628;28;20105;-56
2023/08/05 09:23:24;;;;;;;4.60;3.78;;;;;;;;;;5015300;28;20038;-56
2023/08/05 09:25:49;;;;;;;3.75;3.40;;;;;;;;;;5014976;28;20040;-56
2023/08/05 09:28:28;;;;;;;4.55;4.00;;;;;;;;;;5014675;28;20038;-56
2023/08/05 09:31:00;;;;;;;4.07;3.67;;;;;;;;;;5013994;28;20033;-56
2023/08/05 09:33:28;;;;;;;4.28;3.45;;;;;;;;;;5013880;28;20022;-56
2023/08/05 09:35:55;;;;;;;6.03;3.30;;;;;;;;;;5015081;28;20041;-56
2023/08/05 09:38:20;;;;;;;5.13;3.90;;;;;;;;;;5014981;28;20380;-56
2023/08/05 09:40:48;;;;;;;5.90;3.90;;;;;;;;;;5014993;28;20030;-56
2023/08/05 09:43:14;;;;;;;3.78;3.47;;;;;;;;;;5015194;28;20044;-56
2023/08/05 09:45:43;;;;;;;4.05;3.60;;;;;;;;;;5014884;28;20487;-56
2023/08/05 09:48:10;;;;;;;4.30;3.87;;;;;;;;;;5015091;28;20030;-56
2023/08/05 09:50:37;;;;;;;4.32;3.75;;;;;;;;;;5015602;28;20396;-56
2023/08/05 09:53:04;;;;;;;4.90;3.80;;;;;;;;;;5015074;28;20495;-56
2023/08/05 09:55:29;;;;;;;5.68;4.10;;;;;;;;;;5013490;28;20034;-56
2023/08/05 09:57:55;;;;;;;4.45;4.05;;;;;;;;;;5014976;28;20029;-56
2023/08/05 10:00:21;;;;;;;4.90;3.70;;;;;;;;;;5014928;28;20064;-56
2023/08/05 10:02:46;;;;;;;5.20;4.22;;;;;;;;;;5014607;28;20030;-56
2023/08/05 10:05:12;;;;;;;4.70;4.32;;;;;;;;;;5014599;28;20116;-56
2023/08/05 10:07:39;;;;;;;5.53;4.90;;;;;;;;;;5014445;28;20029;-56
2023/08/05 10:10:07;;;;;;;5.40;4.78;;;;;;;;;;5014774;28;20045;-56
2023/08/05 10:12:36;;;;;;;5.80;5.30;;;;;;;;;;5014454;28;20029;-56
2023/08/05 10:15:01;;;;;;;9.10;5.65;;;;;;;;;;5014405;28;20049;-56
2023/08/05 10:17:27;;;;;;;12.65;7.85;;;;;;;;;;5014188;28;20034;-56
2023/08/05 10:19:53;;;;;;;7.53;6.20;;;;;;;;;;5014288;28;20029;-55
2023/08/05 10:22:22;;;;;;;10.48;6.85;;;;;;;;;;5013832;28;20379;-55
2023/08/05 10:24:51;;;;;;;8.63;6.05;;;;;;;;;;5013753;28;20448;-58
2023/08/05 10:27:16;;;;;;;6.10;5.55;;;;;;;;;;5021688;28;20152;-55
2023/08/05 10:29:55;;;;;;;6.05;5.47;;;;;;;;;;5024542;28;20108;-55
2023/08/05 10:32:28;;;;;;;6.75;5.55;;;;;;;;;;5014334;28;20033;-57
2023/08/05 10:35:12;;;;;;;10.25;5.60;;;;;;;;;;5023025;28;20441;-56
2023/08/05 10:37:47;;;;;;;8.38;5.53;;;;;;;;;;5022036;28;20088;-55
2023/08/05 10:40:13;;;;;;;6.10;5.53;;;;;;;;;;5021792;28;20522;-55
2023/08/05 10:42:38;;;;;;;9.07;6.45;;;;;;;;;;5023221;28;20022;-55
2023/08/05 10:45:05;;;;;;;6.43;5.82;;;;;;;;;;5021578;28;20018;-56
2023/08/05 10:47:32;;;;;;;6.28;5.63;;;;;;;;;;5021860;28;20387;-56
2023/08/05 10:49:59;;;;;;;7.25;6.28;;;;;;;;;;5023713;28;20049;-55
2023/08/05 10:52:24;;;;;;;6.53;5.93;;;;;;;;;;5021517;28;20052;-56
2023/08/05 10:54:51;;;;;;;7.50;5.90;;;;;;;;;;5019641;28;20080;-60
2023/08/05 10:57:39;;;;;;;7.43;6.65;;;;;;;;;;5027728;28;20025;-55
2023/08/05 11:00:07;;;;;;;8.38;6.72;;;;;;;;;;5021632;28;20100;-60
2023/08/05 11:02:33;;;;;;;6.90;6.25;;;;;;;;;;5032676;28;20033;-56
2023/08/05 11:05:05;;;;;;;9.05;6.43;;;;;;;;;;5031961;28;20029;-60
2023/08/05 11:07:31;;;;;;;9.52;5.82;;;;;;;;;;5031695;28;20030;-60
2023/08/05 11:09:56;;;;;;;6.65;5.95;;;;;;;;;;5022326;28;20490;-60
2023/08/05 11:12:22;;;;;;;11.25;6.68;;;;;;;;;;5031844;28;20052;-60
2023/08/05 11:14:47;;;;;;;7.30;5.90;;;;;;;;;;5031993;28;20140;-55
2023/08/05 11:17:13;;;;;;;9.25;5.85;;;;;;;;;;5022865;28;20379;-56
2023/08/05 11:19:51;;;;;;;6.07;5.47;;;;;;;;;;5032071;28;20021;-55
2023/08/05 11:22:26;;;;;;;6.13;5.57;;;;;;;;;;5032725;28;20044;-60
2023/08/05 11:24:58;;;;;;;7.07;5.63;;;;;;;;;;5031566;28;20079;-55
2023/08/05 11:27:33;;;;;;;6.78;6.07;;;;;;;;;;5032388;28;20030;-60
2023/08/05 11:29:58;;;;;;;7.28;6.53;;;;;;;;;;5032568;28;20125;-60
2023/08/05 11:32:24;;;;;;;7.60;6.68;;;;;;;;;;5032030;28;20092;-60
2023/08/05 11:34:50;;;;;;;10.32;7.35;;;;;;;;;;5029284;28;20017;-60
2023/08/05 11:37:22;;;;;;;9.00;6.97;;;;;;;;;;5032082;28;20495;-60
2023/08/05 11:39:47;;;;;;;8.02;6.68;;;;;;;;;;5015784;28;20502;-60
2023/08/05 11:42:12;;;;;;;8.23;7.25;;;;;;;;;;5032432;28;20021;-60
2023/08/05 11:44:38;;;;;;;10.10;7.28;;;;;;;;;;5032075;28;20471;-60
2023/08/05 11:47:03;;;;;;;8.38;6.50;;;;;;;;;;5032281;28;20045;-60
2023/08/05 11:49:29;;;;;;;7.78;6.32;;;;;;;;;;5032226;28;20021;-60
2023/08/05 11:51:54;;;;;;;6.47;5.78;;;;;;;;;;5036627;28;20107;-60
2023/08/05 11:54:31;;;;;;;8.30;5.97;;;;;;;;;;5036525;28;20040;-60
2023/08/05 11:56:57;;;;;;;7.15;6.43;;;;;;;;;;5036054;28;20155;-60
2023/08/05 11:59:41;;;;;;;7.15;6.45;;;;;;;;;;5036213;28;20468;-60
2023/08/05 12:02:07;;;;;;;7.25;6.15;;;;;;;;;;5038113;28;20669;-60
2023/08/05 12:04:39;;;;;;;12.32;6.88;;;;;;;;;;5032792;28;20044;-60
2023/08/05 12:07:09;;;;;;;7.15;5.78;;;;;;;;;;5035385;28;20036;-60
2023/08/05 12:09:34;;;;;;;10.43;6.43;;;;;;;;;;5033202;28;20021;-60
2023/08/05 12:12:00;;;;;;;7.95;6.40;;;;;;;;;;5025869;28;20105;-60
2023/08/05 12:14:25;;;;;;;7.97;6.97;;;;;;;;;;5035321;28;20046;-61
2023/08/05 12:16:55;;;;;;;7.38;6.65;;;;;;;;;;5024946;28;20498;-60
2023/08/05 12:19:20;;;;;;;9.80;7.07;;;;;;;;;;5035174;28;20021;-60
2023/08/05 12:21:46;;;;;;;6.57;5.97;;;;;;;;;;5025172;28;20099;-60
2023/08/05 12:24:11;;;;;;;7.10;5.78;;;;;;;;;;5025685;28;20022;-60
2023/08/05 12:26:36;;;;;;;8.63;5.90;;;;;;;;;;5035031;28;20464;-60
2023/08/05 12:29:02;;;;;;;8.65;7.47;;;;;;;;;;5026148;28;20022;-60
2023/08/05 12:31:29;;;;;;;7.00;6.40;;;;;;;;;;5025292;28;20395;-60
2023/08/05 12:33:56;;;;;;;8.07;7.03;;;;;;;;;;5024429;28;20969;-60
2023/08/05 12:36:21;;;;;;;8.20;6.28;;;;;;;;;;5022917;28;20056;-60
2023/08/05 12:38:52;;;;;;;7.93;6.18;;;;;;;;;;5035119;28;20057;-60
2023/08/05 12:41:17;;;;;;;7.47;6.72;;;;;;;;;;5034667;28;20018;-56
2023/08/05 12:43:42;;;;;;;9.07;5.53;;;;;;;;;;5025531;28;20052;-56
2023/08/05 12:46:08;;;;;;;6.93;5.78;;;;;;;;;;5024767;28;20075;-56
2023/08/05 12:48:33;;;;;;;7.47;6.68;;;;;;;;;;5034645;28;20025;-56
2023/08/05 12:50:58;;;;;;;8.45;6.60;;;;;;;;;;5034803;28;20024;-56
2023/08/05 12:53:24;;;;;;;8.77;7.40;;;;;;;;;;5034561;28;20478;-56
2023/08/05 12:55:49;;;;;;;9.35;7.75;;;;;;;;;;5024741;28;20032;-56
2023/08/05 12:58:14;;;;;;;9.70;7.47;;;;;;;;;;5021900;28;20480;-56
2023/08/05 13:00:40;;;;;;;7.82;6.95;;;;;;;;;;5015234;28;20017;-56
2023/08/05 13:03:05;;;;;;;9.38;6.80;;;;;;;;;;5015163;28;20053;-56
2023/08/05 13:05:30;;;;;;;10.32;7.65;;;;;;;;;;5015474;28;20061;-56
2023/08/05 13:07:56;;;;;;;9.15;8.15;;;;;;;;;;5016409;28;20033;-56
2023/08/05 13:10:21;;;;;;;9.13;7.85;;;;;;;;;;5015574;28;20465;-56
2023/08/05 13:12:46;;;;;;;11.57;8.23;;;;;;;;;;5014258;28;20030;-56
2023/08/05 13:15:12;;;;;;;10.82;8.25;;;;;;;;;;5015377;28;20046;-56
2023/08/05 13:17:37;;;;;;;7.28;6.57;;;;;;;;;;5012687;28;20436;-56
2023/08/05 13:20:02;;;;;;;7.95;7.13;;;;;;;;;;5012187;28;20033;-56
2023/08/05 13:22:28;;;;;;;7.78;6.88;;;;;;;;;;5013378;28;20404;-56
2023/08/05 13:24:54;;;;;;;9.10;8.30;;;;;;;;;;5013456;28;20034;-56
2023/08/05 13:27:21;;;;;;;9.00;7.45;;;;;;;;;;5013424;28;20092;-56
2023/08/05 13:29:46;;;;;;;9.50;8.05;;;;;;;;;;5013821;28;20480;-56
2023/08/05 13:32:12;;;;;;;8.07;7.28;;;;;;;;;;5014873;28;20089;-56
2023/08/05 13:34:37;;;;;;;8.63;7.22;;;;;;;;;;5013862;28;20045;-56
2023/08/05 13:37:03;;;;;;;7.50;6.70;;;;;;;;;;5015123;28;20021;-56
2023/08/05 13:39:28;;;;;;;7.47;6.80;;;;;;;;;;5015019;28;20041;-56
2023/08/05 13:41:56;;;;;;;6.93;6.30;;;;;;;;;;5015277;28;20022;-56
2023/08/05 13:44:22;;;;;;;9.02;7.40;;;;;;;;;;5014941;28;20053;-56
2023/08/05 13:46:48;;;;;;;8.43;7.55;;;;;;;;;;5015371;28;20030;-56
2023/08/05 13:49:13;;;;;;;7.80;7.00;;;;;;;;;;5014882;28;20084;-56
2023/08/05 13:51:38;;;;;;;7.10;6.55;;;;;;;;;;5014815;28;20446;-56
2023/08/05 13:54:04;;;;;;;8.13;7.32;;;;;;;;;;5015062;28;20055;-56
2023/08/05 13:56:29;;;;;;;8.13;7.25;;;;;;;;;;5014723;28;20030;-56
2023/08/05 13:58:54;;;;;;;8.32;7.50;;;;;;;;;;5013799;28;20064;-56
2023/08/05 14:01:20;;;;;;;7.88;7.05;;;;;;;;;;5014644;28;20030;-56
2023/08/05 14:03:45;;;;;;;8.80;7.63;;;;;;;;;;5014696;28;20117;-56
2023/08/05 14:06:12;;;;;;;8.32;7.05;;;;;;;;;;5013352;28;20456;-56
2023/08/05 14:08:37;;;;;;;7.88;7.15;;;;;;;;;;5014494;28;20034;-56
2023/08/05 14:11:03;;;;;;;7.78;7.07;;;;;;;;;;5014499;28;20479;-56
2023/08/05 14:13:28;;;;;;;7.00;6.20;;;;;;;;;;5013699;28;20018;-56
2023/08/05 14:15:53;;;;;;;7.20;6.50;;;;;;;;;;5013283;28;20472;-56
2023/08/05 14:18:20;;;;;;;8.10;6.32;;;;;;;;;;5014364;28;20084;-56
2023/08/05 14:20:45;;;;;;;6.88;6.30;;;;;;;;;;5015173;28;20376;-56
2023/08/05 14:23:11;;;;;;;8.80;6.63;;;;;;;;;;5014312;28;20029;-56
2023/08/05 14:25:36;;;;;;;8.65;6.88;;;;;;;;;;5014525;28;20033;-56
2023/08/05 14:28:02;;;;;;;6.97;6.32;;;;;;;;;;5014443;28;20029;-56
2023/08/05 14:30:29;;;;;;;9.30;6.60;;;;;;;;;;5012873;28;20436;-56
2023/08/05 14:32:54;;;;;;;6.75;6.07;;;;;;;;;;5014153;28;20026;-56
2023/08/05 14:35:19;;;;;;;7.07;6.38;;;;;;;;;;5014157;28;20030;-56
2023/08/05 14:37:45;;;;;;;7.35;6.65;;;;;;;;;;5012907;28;20113;-56